Terminal Aerodrome Forecast
Issued by NWS

Home | Current Version | Previous Version | Text Only | Print | Product List | Glossary Off
Versions: 1 2 3 4 5 6 7 8 9 10 11 12 13 14 15 16 17 18 19

000
FTUS43 KICT 311745
TAFSLN
TAF
KSLN 311745Z 3118/0118 16011KT 4SM -RA SCT009 OVC015
     FM312000 17013KT 4SM -RA SCT007 OVC009
     FM010600 24009KT 4SM -RA SCT007 OVC009
     FM010800 33016G22KT 3SM -RASN SCT007 OVC009
     FM011200 34020G28KT P6SM SCT009 BKN015=

USA.gov is the U.S. government's official web portal to all federal, state and local government web resources and services.